createdAt,value
2024-04-15T00:01:26.180Z,100183.50
2024-04-15T00:03:53.017Z,100183.81
2024-04-15T00:06:19.717Z,100165.88
2024-04-15T00:08:46.878Z,100173.16
2024-04-15T00:11:13.998Z,100167.81
2024-04-15T00:13:40.781Z,100162.63
2024-04-15T00:16:10.880Z,100162.97
2024-04-15T00:18:38.829Z,100148.59
2024-04-15T00:21:11.140Z,100152.97
2024-04-15T00:23:38.072Z,100151.44
2024-04-15T00:26:04.985Z,100146.00
2024-04-15T00:28:31.613Z,100144.56
2024-04-15T00:30:58.390Z,100145.59
2024-04-15T00:33:25.203Z,100131.19
2024-04-15T00:35:52.261Z,100123.28
2024-04-15T00:38:18.930Z,100106.84
2024-04-15T00:40:45.636Z,100096.94
2024-04-15T00:43:13.471Z,100097.34
2024-04-15T00:45:40.602Z,100094.41
2024-04-15T00:48:12.426Z,100092.72
2024-04-15T00:50:41.734Z,100083.22
2024-04-15T00:53:09.850Z,100091.38
2024-04-15T00:55:38.516Z,100083.50
2024-04-15T00:58:06.160Z,100084.34
2024-04-15T01:00:32.911Z,100078.69
2024-04-15T01:02:59.771Z,100075.38
2024-04-15T01:05:26.932Z,100072.19
2024-04-15T01:07:53.635Z,100067.88
2024-04-15T01:10:20.498Z,100067.63
2024-04-15T01:12:47.571Z,100067.63
2024-04-15T01:15:14.192Z,100071.09
2024-04-15T01:17:40.921Z,100062.75
2024-04-15T01:20:07.830Z,100072.72
2024-04-15T01:22:44.334Z,100064.19
2024-04-15T01:25:11.329Z,100072.97
2024-04-15T01:27:38.391Z,100059.00
2024-04-15T01:30:05.534Z,100055.88
2024-04-15T01:32:32.735Z,100049.72
2024-04-15T01:34:59.462Z,100041.34
2024-04-15T01:37:26.155Z,100035.16
2024-04-15T01:39:52.874Z,100044.41
2024-04-15T01:42:19.670Z,100045.97
2024-04-15T01:44:46.323Z,100036.50
2024-04-15T01:47:12.989Z,100030.66
2024-04-15T01:49:39.605Z,100022.50
2024-04-15T01:52:06.593Z,100018.66
2024-04-15T01:54:33.264Z,100027.81
2024-04-15T01:56:59.993Z,100017.97
2024-04-15T01:59:26.667Z,100005.16
2024-04-15T02:01:53.524Z,100000.75
2024-04-15T02:04:20.243Z,100002.59
2024-04-15T02:06:46.856Z,100000.75
2024-04-15T02:09:13.651Z,100003.75
2024-04-15T02:11:40.299Z,100001.47
2024-04-15T02:14:07.089Z,99991.84
2024-04-15T02:16:34.068Z,99989.34
2024-04-15T02:19:01.099Z,100001.69
2024-04-15T02:21:27.745Z,99993.41
2024-04-15T02:23:54.359Z,99982.41
2024-04-15T02:26:20.988Z,99970.63
2024-04-15T02:28:47.666Z,99977.44
2024-04-15T02:31:14.679Z,99973.44
2024-04-15T02:33:41.396Z,99978.28
2024-04-15T02:36:08.019Z,99979.41
2024-04-15T02:38:34.760Z,99986.84
2024-04-15T02:41:01.415Z,99975.16
2024-04-15T02:43:28.058Z,99985.13
2024-04-15T02:45:54.701Z,99987.25
2024-04-15T02:48:21.347Z,99984.28
2024-04-15T02:50:47.992Z,99988.28
2024-04-15T02:53:14.672Z,99977.38
2024-04-15T02:55:43.133Z,99973.66
2024-04-15T02:58:09.849Z,99993.66
2024-04-15T03:00:36.558Z,99993.91
2024-04-15T03:03:03.404Z,99978.66
2024-04-15T03:05:30.173Z,99979.56
2024-04-15T03:07:56.772Z,99972.44
2024-04-15T03:10:23.494Z,99970.41
2024-04-15T03:12:52.517Z,99954.09
2024-04-15T03:15:19.492Z,99958.84
2024-04-15T03:17:49.175Z,99954.72
2024-04-15T03:20:16.793Z,99951.88
2024-04-15T03:22:51.224Z,99960.66
2024-04-15T03:25:21.685Z,99955.28
2024-04-15T03:27:52.037Z,99944.91
2024-04-15T03:30:19.053Z,99943.13
2024-04-15T03:32:45.736Z,99940.91
2024-04-15T03:35:15.282Z,99945.75
2024-04-15T03:37:43.126Z,99951.56
2024-04-15T03:40:11.379Z,99949.53
2024-04-15T03:42:38.155Z,99950.53
2024-04-15T03:45:05.588Z,99952.88
2024-04-15T03:47:32.478Z,99950.66
2024-04-15T03:49:59.254Z,99950.59
2024-04-15T03:52:25.910Z,99957.38
2024-04-15T03:54:52.607Z,99964.59
2024-04-15T03:57:19.540Z,99955.50
2024-04-15T03:59:46.505Z,99954.56
2024-04-15T04:02:13.323Z,99953.16
2024-04-15T04:04:41.768Z,99949.53
2024-04-15T04:07:08.755Z,99956.56
2024-04-15T04:09:39.288Z,99951.03
2024-04-15T04:12:06.153Z,99947.88
2024-04-15T04:14:32.780Z,99954.38
2024-04-15T04:16:59.625Z,99951.13
2024-04-15T04:19:26.976Z,99964.31
2024-04-15T04:21:53.802Z,99959.00
2024-04-15T04:24:20.607Z,99968.41
2024-04-15T04:26:47.281Z,99966.28
2024-04-15T04:29:14.177Z,99971.19
2024-04-15T04:31:41.266Z,99970.34
2024-04-15T04:34:07.944Z,99974.22
2024-04-15T04:36:34.740Z,99963.28
2024-04-15T04:39:01.390Z,99974.03
2024-04-15T04:41:29.741Z,99974.22
2024-04-15T04:43:56.418Z,99969.13
2024-04-15T04:46:23.267Z,99974.56
2024-04-15T04:48:50.876Z,99974.84
2024-04-15T04:51:17.821Z,99974.44
2024-04-15T04:53:44.695Z,99978.19
2024-04-15T04:56:12.893Z,99963.25
2024-04-15T04:58:39.957Z,99966.41
2024-04-15T05:01:10.378Z,99961.28
2024-04-15T05:03:39.133Z,99971.28
2024-04-15T05:06:09.131Z,99979.56
2024-04-15T05:08:36.302Z,99975.59
2024-04-15T05:11:03.543Z,99968.88
2024-04-15T05:13:30.482Z,99968.47
2024-04-15T05:16:08.439Z,99966.28
2024-04-15T05:18:36.541Z,99964.63
2024-04-15T05:21:11.035Z,99959.59
2024-04-15T05:23:37.713Z,99952.09
2024-04-15T05:26:04.583Z,99948.97
2024-04-15T05:28:31.367Z,99954.81
2024-04-15T05:30:58.587Z,99961.56
2024-04-15T05:33:25.424Z,99968.56
2024-04-15T05:35:52.305Z,99957.75
2024-04-15T05:38:19.060Z,99960.19
2024-04-15T05:40:45.813Z,99966.09
2024-04-15T05:43:12.804Z,99957.00
2024-04-15T05:45:40.314Z,99953.25
2024-04-15T05:48:08.038Z,99943.75
2024-04-15T05:50:34.793Z,99940.53
2024-04-15T05:53:01.527Z,99937.38
2024-04-15T05:55:28.216Z,99936.97
2024-04-15T05:57:54.969Z,99926.03
2024-04-15T06:00:22.040Z,99919.84
2024-04-15T06:02:48.950Z,99923.94
2024-04-15T06:05:15.842Z,99921.84
2024-04-15T06:07:43.288Z,99919.94
2024-04-15T06:10:11.025Z,99913.34
2024-04-15T06:12:38.165Z,99904.72
2024-04-15T06:15:05.210Z,99911.00
2024-04-15T06:17:32.097Z,99913.38
2024-04-15T06:19:58.899Z,99925.13
2024-04-15T06:22:25.625Z,99914.25
2024-04-15T06:24:52.548Z,99913.00
2024-04-15T06:27:22.189Z,99910.50
2024-04-15T06:29:51.600Z,99909.75
2024-04-15T06:32:18.276Z,99923.69
2024-04-15T06:34:44.912Z,99925.25
2024-04-15T06:37:11.685Z,99919.66
2024-04-15T06:39:38.874Z,99918.94
2024-04-15T06:42:05.727Z,99920.38
2024-04-15T06:44:34.748Z,99920.38
2024-04-15T06:47:01.579Z,99907.19
2024-04-15T06:49:28.808Z,99911.56
2024-04-15T06:51:55.617Z,99908.78
2024-04-15T06:54:22.560Z,99907.22
2024-04-15T06:56:49.435Z,99904.06
2024-04-15T06:59:16.325Z,99899.88
2024-04-15T07:01:43.145Z,99890.94
2024-04-15T07:04:11.483Z,99900.94
2024-04-15T07:06:38.176Z,99899.03
2024-04-15T07:09:04.901Z,99897.94
2024-04-15T07:11:31.666Z,99892.66
2024-04-15T07:13:58.352Z,99884.94
2024-04-15T07:16:25.107Z,99875.81
2024-04-15T07:18:51.860Z,99868.38
2024-04-15T07:21:18.655Z,99880.81
2024-04-15T07:23:47.083Z,99882.69
2024-04-15T07:26:13.788Z,99871.13
2024-04-15T07:28:40.592Z,99856.59
2024-04-15T07:31:08.098Z,99857.13
2024-04-15T07:33:34.958Z,99848.44
2024-04-15T07:36:02.461Z,99846.00
2024-04-15T07:38:29.478Z,99835.84
2024-04-15T07:41:00.057Z,99831.34
2024-04-15T07:43:28.097Z,99816.28
2024-04-15T07:45:54.996Z,99812.47
2024-04-15T07:48:21.923Z,99802.06
2024-04-15T07:50:48.623Z,99790.06
2024-04-15T07:53:15.360Z,99770.88
2024-04-15T07:55:46.884Z,99780.81
2024-04-15T07:58:13.828Z,99775.75
2024-04-15T08:00:41.336Z,99777.03
2024-04-15T08:03:08.129Z,99775.84
2024-04-15T08:05:34.953Z,99772.53
2024-04-15T08:08:01.625Z,99768.47
2024-04-15T08:10:31.463Z,99771.72
2024-04-15T08:12:58.250Z,99773.03
2024-04-15T08:15:25.311Z,99771.13
2024-04-15T08:17:52.335Z,99750.00
2024-04-15T08:20:19.031Z,99753.50
2024-04-15T08:22:48.663Z,99762.78
2024-04-15T08:25:17.558Z,99774.06
2024-04-15T08:27:44.346Z,99762.19
2024-04-15T08:30:11.172Z,99761.47
2024-04-15T08:32:41.771Z,99767.88
2024-04-15T08:35:09.665Z,99775.63
2024-04-15T08:37:36.401Z,99765.03
2024-04-15T08:40:06.177Z,99760.16
2024-04-15T08:43:05.556Z,99752.06
2024-04-15T08:45:32.859Z,99749.56
2024-04-15T08:47:59.712Z,99751.13
2024-04-15T08:50:27.694Z,99737.28
2024-04-15T08:52:56.728Z,99744.69
2024-04-15T08:55:26.683Z,99740.78
2024-04-15T08:57:53.948Z,99744.38
2024-04-15T09:00:22.839Z,99732.94
2024-04-15T09:02:51.648Z,99734.75
2024-04-15T09:05:18.615Z,99722.63
2024-04-15T09:07:45.593Z,99724.53
2024-04-15T09:10:16.696Z,99715.88
2024-04-15T09:12:44.495Z,99716.97
2024-04-15T09:15:12.508Z,99721.38
2024-04-15T09:17:39.827Z,99701.31
2024-04-15T09:20:12.083Z,99689.16
2024-04-15T09:22:39.012Z,99685.44
2024-04-15T09:25:07.728Z,99683.44
2024-04-15T09:27:34.525Z,99683.66
2024-04-15T09:30:01.614Z,99672.59
2024-04-15T09:32:28.891Z,99670.81
2024-04-15T09:35:01.472Z,99674.88
2024-04-15T09:37:29.028Z,99671.78
2024-04-15T09:39:56.276Z,99664.16
2024-04-15T09:42:23.092Z,99664.63
2024-04-15T09:44:50.648Z,99656.25
2024-04-15T09:47:18.851Z,99642.00
2024-04-15T09:49:47.938Z,99628.72
2024-04-15T09:52:32.477Z,99630.53
2024-04-15T09:55:10.148Z,99626.22
2024-04-15T09:57:41.200Z,99625.69
2024-04-15T10:00:14.717Z,99611.16
2024-04-15T10:03:04.584Z,99608.56
2024-04-15T10:05:33.907Z,99591.69
2024-04-15T10:08:00.627Z,99584.53
2024-04-15T10:10:28.847Z,99582.56
2024-04-15T10:12:57.490Z,99572.16
2024-04-15T10:15:25.346Z,99579.75
2024-04-15T10:18:01.557Z,99578.69
2024-04-15T10:20:33.905Z,99555.22
2024-04-15T10:23:06.279Z,99553.38
2024-04-15T10:25:39.140Z,99547.38
2024-04-15T10:28:06.854Z,99535.56
2024-04-15T10:30:34.635Z,99532.22
2024-04-15T10:33:07.672Z,99526.03
2024-04-15T10:35:36.587Z,99531.84
2024-04-15T10:38:08.405Z,99514.72
2024-04-15T10:40:46.286Z,99525.00
2024-04-15T10:43:15.225Z,99518.69
2024-04-15T10:45:42.238Z,99520.84
2024-04-15T10:48:10.611Z,99507.03
2024-04-15T10:50:37.450Z,99496.59
2024-04-15T10:53:07.083Z,99479.44
2024-04-15T10:55:33.954Z,99488.63
2024-04-15T10:58:00.759Z,99478.22
2024-04-15T11:00:27.708Z,99474.75
2024-04-15T11:02:57.025Z,99475.84
2024-04-15T11:05:28.735Z,99456.16
2024-04-15T11:07:55.400Z,99448.50
2024-04-15T11:10:22.371Z,99451.81
2024-04-15T11:12:53.785Z,99442.03
2024-04-15T11:15:22.246Z,99439.59
2024-04-15T11:17:54.011Z,99428.38
2024-04-15T11:20:22.318Z,99404.94
2024-04-15T11:22:52.998Z,99420.97
2024-04-15T11:25:20.504Z,99403.72
2024-04-15T11:27:54.275Z,99390.03
2024-04-15T11:30:28.382Z,99387.44
2024-04-15T11:33:02.965Z,99396.16
2024-04-15T11:35:29.981Z,99379.97
2024-04-15T11:38:04.667Z,99379.13
2024-04-15T11:40:32.570Z,99374.16
2024-04-15T11:42:59.775Z,99355.41
2024-04-15T11:45:26.956Z,99354.91
2024-04-15T11:47:54.481Z,99360.66
2024-04-15T11:50:21.683Z,99344.38
2024-04-15T11:52:48.966Z,99354.91
2024-04-15T11:55:21.473Z,99325.47
2024-04-15T11:57:50.158Z,99337.34
2024-04-15T12:00:17.308Z,99323.16
2024-04-15T12:02:45.477Z,99304.22
2024-04-15T12:05:14.227Z,99303.19
2024-04-15T12:07:43.017Z,99294.28
2024-04-15T12:10:11.849Z,99290.63
2024-04-15T12:12:39.497Z,99302.47
2024-04-15T12:15:09.344Z,99279.31
2024-04-15T12:17:39.643Z,99264.97
2024-04-15T12:20:08.873Z,99278.47
2024-04-15T12:22:36.113Z,99259.91
2024-04-15T12:25:11.365Z,99259.22
2024-04-15T12:27:39.899Z,99252.97
2024-04-15T12:30:11.445Z,99237.75
2024-04-15T12:32:44.634Z,99249.13
2024-04-15T12:35:18.232Z,99210.97
2024-04-15T12:37:45.332Z,99213.72
2024-04-15T12:40:14.566Z,99220.84
2024-04-15T12:42:41.493Z,99212.53
2024-04-15T12:45:10.927Z,99211.00
2024-04-15T12:47:38.377Z,99183.00
2024-04-15T12:50:06.332Z,99190.44
2024-04-15T12:52:34.079Z,99185.56
2024-04-15T12:55:01.167Z,99184.06
2024-04-15T12:57:31.286Z,99187.22
2024-04-15T12:59:58.255Z,99159.13
2024-04-15T13:02:25.281Z,99182.19
2024-04-15T13:04:52.277Z,99160.03
2024-04-15T13:07:27.455Z,99148.06
2024-04-15T13:09:55.162Z,99140.66
2024-04-15T13:15:18.931Z,99122.69
2024-04-15T13:17:53.105Z,99114.69
2024-04-15T13:20:26.109Z,99100.56
2024-04-15T13:22:57.620Z,99126.34
2024-04-15T13:25:24.838Z,99110.97
2024-04-15T13:27:52.593Z,99096.84
2024-04-15T13:30:22.092Z,99085.22
2024-04-15T13:32:49.470Z,99070.97
2024-04-15T13:35:22.456Z,99080.50
2024-04-15T13:38:06.091Z,99071.28
2024-04-15T13:40:33.283Z,99056.34
2024-04-15T13:43:00.168Z,99059.66
2024-04-15T13:45:26.910Z,99047.66
2024-04-15T13:48:01.649Z,99044.22
2024-04-15T13:50:30.624Z,99045.81
2024-04-15T13:52:57.279Z,99031.19
2024-04-15T13:55:24.288Z,99047.72
2024-04-15T13:57:51.386Z,99041.41
2024-04-15T14:00:18.243Z,99030.53
2024-04-15T14:02:45.282Z,99018.47
2024-04-15T14:05:12.420Z,99035.00
2024-04-15T14:07:44.194Z,99025.78
2024-04-15T14:10:11.977Z,99039.84
2024-04-15T14:12:40.259Z,99035.63
2024-04-15T14:15:07.358Z,99007.41
2024-04-15T14:17:34.282Z,99026.16
2024-04-15T14:20:01.250Z,99017.75
2024-04-15T14:22:28.170Z,99024.44
2024-04-15T14:24:54.862Z,98997.06
2024-04-15T14:27:21.718Z,99014.03
2024-04-15T14:29:48.418Z,99033.97
2024-04-15T14:32:15.079Z,99022.81
2024-04-15T14:34:45.593Z,99017.25
2024-04-15T14:37:13.126Z,98992.31
2024-04-15T14:39:39.767Z,98994.88
2024-04-15T14:42:07.245Z,98998.47
2024-04-15T14:44:33.878Z,99015.66
2024-04-15T14:47:00.655Z,98993.97
2024-04-15T14:49:28.890Z,98976.56
2024-04-15T14:51:56.189Z,98965.78
2024-04-15T14:54:22.952Z,98939.16
2024-04-15T14:56:49.690Z,98939.69
2024-04-15T14:59:16.420Z,98965.56
2024-04-15T15:01:43.252Z,98956.03
2024-04-15T15:04:10.288Z,98947.25
2024-04-15T15:06:37.424Z,98955.22
2024-04-15T15:09:04.542Z,98930.34
2024-04-15T15:11:31.292Z,98933.44
2024-04-15T15:13:58.329Z,98934.13
2024-04-15T15:16:25.196Z,98936.78
2024-04-15T15:18:52.210Z,98949.25
2024-04-15T15:21:24.130Z,98938.09
2024-04-15T15:23:55.278Z,98934.09
2024-04-15T15:26:22.167Z,98937.94
2024-04-15T15:28:48.948Z,98932.69
2024-04-15T15:31:15.750Z,98901.66
2024-04-15T15:33:45.314Z,98903.63
2024-04-15T15:36:12.137Z,98903.56
2024-04-15T15:38:39.161Z,98916.56
2024-04-15T15:41:05.909Z,98920.66
2024-04-15T15:43:41.918Z,98907.03
2024-04-15T15:46:11.229Z,98900.91
2024-04-15T15:48:38.375Z,98894.25
2024-04-15T15:51:05.467Z,98896.34
2024-04-15T15:53:32.255Z,98905.97
2024-04-15T15:55:58.940Z,98899.31
2024-04-15T15:58:25.744Z,98884.66
2024-04-15T16:00:52.534Z,98867.00
2024-04-15T16:03:21.694Z,98883.56
2024-04-15T16:05:51.375Z,98878.66
2024-04-15T16:08:20.798Z,98868.00
2024-04-15T16:10:47.690Z,98857.88
2024-04-15T16:13:15.289Z,98857.22
2024-04-15T16:15:42.200Z,98865.34
2024-04-15T16:18:09.218Z,98868.75
2024-04-15T16:20:36.395Z,98855.84
2024-04-15T16:23:03.211Z,98842.81
2024-04-15T16:25:29.971Z,98832.47
2024-04-15T16:27:56.730Z,98859.78
2024-04-15T16:30:23.544Z,98850.81
2024-04-15T16:32:50.487Z,98843.69
2024-04-15T16:35:20.089Z,98849.31
2024-04-15T16:37:47.002Z,98852.69
2024-04-15T16:40:13.823Z,98849.53
2024-04-15T16:42:40.617Z,98866.22
2024-04-15T16:45:07.974Z,98870.72
2024-04-15T16:47:34.907Z,98908.38
2024-04-15T16:50:01.771Z,98911.47
2024-04-15T16:52:28.720Z,98933.94
2024-04-15T16:54:55.488Z,98925.91
2024-04-15T16:57:22.222Z,98957.56
2024-04-15T16:59:49.045Z,98904.47
2024-04-15T17:02:17.455Z,98941.31
2024-04-15T17:04:44.445Z,98961.31
2024-04-15T17:07:11.522Z,98973.38
2024-04-15T17:09:38.295Z,99004.47
2024-04-15T17:12:05.508Z,99011.69
2024-04-15T17:14:32.277Z,99048.84
2024-04-15T17:16:59.610Z,99122.84
2024-04-15T17:19:26.292Z,99853.66
2024-04-15T17:22:18.266Z,99475.13
2024-04-15T17:25:01.945Z,99694.59
2024-04-15T17:28:47.302Z,99595.84
2024-04-15T17:31:17.468Z,99112.53
2024-04-15T17:33:50.731Z,99107.22
2024-04-15T17:36:50.007Z,99108.41
2024-04-15T17:39:18.962Z,99103.00
2024-04-15T17:41:45.685Z,99109.63
2024-04-15T17:44:14.584Z,99106.03
2024-04-15T17:46:43.226Z,99115.66
2024-04-15T17:49:09.961Z,99141.84
2024-04-15T17:51:37.014Z,99151.03
2024-04-15T17:54:04.077Z,60780.25
2024-04-15T17:56:33.157Z,60780.25
2024-04-15T17:58:59.987Z,60780.25
2024-04-15T18:01:26.819Z,60780.25
2024-04-15T18:03:53.647Z,60780.25
2024-04-15T18:06:20.602Z,60780.25
2024-04-15T18:11:32.734Z,99288.41
2024-04-15T18:14:02.656Z,99274.38
2024-04-15T18:16:29.638Z,99251.41
2024-04-15T18:18:56.973Z,99241.81
2024-04-15T18:21:23.672Z,99261.59
2024-04-15T18:23:53.008Z,99280.28
2024-04-15T18:26:19.784Z,99236.59
2024-04-15T18:28:46.413Z,99227.28
2024-04-15T18:31:13.169Z,99250.53
2024-04-15T18:33:39.987Z,99247.88
2024-04-15T18:36:08.415Z,99230.75
2024-04-15T18:38:35.203Z,99235.88
2024-04-15T18:41:01.938Z,99252.75
2024-04-15T18:43:28.818Z,99278.91
2024-04-15T18:45:55.591Z,99282.00
2024-04-15T18:48:22.553Z,99275.56
2024-04-15T18:50:49.443Z,99261.84
2024-04-15T18:53:16.224Z,99257.66
2024-04-15T18:55:43.269Z,99241.59
2024-04-15T18:58:12.469Z,99271.31
2024-04-15T19:00:39.806Z,99296.25
2024-04-15T19:03:16.337Z,99311.69
2024-04-15T19:05:46.263Z,99306.94
2024-04-15T19:08:16.200Z,99318.56
2024-04-15T19:10:44.004Z,99316.25
2024-04-15T19:13:11.038Z,99311.59
2024-04-15T19:15:37.934Z,99335.06
2024-04-15T19:18:05.477Z,99345.59
2024-04-15T19:20:35.919Z,99338.16
2024-04-15T19:23:03.888Z,99305.94
2024-04-15T19:25:32.563Z,99299.75
2024-04-15T19:27:59.528Z,99298.19
2024-04-15T19:30:26.398Z,99304.91
2024-04-15T19:32:53.648Z,99323.69
2024-04-15T19:35:20.550Z,99315.81
2024-04-15T19:37:48.830Z,99327.09
2024-04-15T19:40:15.633Z,99331.91
2024-04-15T19:42:44.871Z,99338.41
2024-04-15T19:45:11.963Z,99333.16
2024-04-15T19:47:39.333Z,99339.81
2024-04-15T19:50:06.762Z,99336.72
2024-04-15T19:52:33.964Z,99319.31
2024-04-15T19:55:04.186Z,99312.41
2024-04-15T19:57:31.326Z,99311.69
2024-04-15T19:59:57.969Z,99315.69
2024-04-15T20:02:24.668Z,99330.81
2024-04-15T20:04:51.521Z,99334.31
2024-04-15T20:07:18.573Z,99332.81
2024-04-15T20:09:45.277Z,99328.22
2024-04-15T20:12:11.931Z,99322.19
2024-04-15T20:14:38.682Z,99338.91
2024-04-15T20:17:21.438Z,99334.34
2024-04-15T20:19:50.999Z,99354.47
2024-04-15T20:22:17.811Z,99344.31
2024-04-15T20:24:44.477Z,99354.41
2024-04-15T20:27:11.496Z,99351.09
2024-04-15T20:29:38.157Z,99347.31
2024-04-15T20:32:05.061Z,99358.38
2024-04-15T20:34:31.842Z,99358.22
2024-04-15T20:36:59.503Z,99363.91
2024-04-15T20:39:26.186Z,99363.78
2024-04-15T20:41:52.794Z,99376.72
2024-04-15T20:44:19.415Z,99376.41
2024-04-15T20:46:46.106Z,99377.25
2024-04-15T20:49:12.897Z,99366.81
2024-04-15T20:51:39.548Z,99364.44
2024-04-15T20:54:06.282Z,99364.81
2024-04-15T20:56:33.364Z,99365.50
2024-04-15T20:58:59.965Z,99371.97
2024-04-15T21:01:27.088Z,99367.56
2024-04-15T21:03:53.969Z,99371.13
2024-04-15T21:06:23.284Z,99357.84
2024-04-15T21:08:53.131Z,99363.50
2024-04-15T21:11:21.399Z,99366.25
2024-04-15T21:13:48.425Z,99374.06
2024-04-15T21:16:15.906Z,99360.66
2024-04-15T21:18:42.628Z,99360.44
2024-04-15T21:21:09.299Z,99360.03
2024-04-15T21:23:35.956Z,99360.94
2024-04-15T21:26:04.979Z,99358.69
2024-04-15T21:28:31.781Z,99360.19
2024-04-15T21:30:59.326Z,99366.03
2024-04-15T21:33:26.047Z,99359.03
2024-04-15T21:35:52.722Z,99352.81
2024-04-15T21:38:19.405Z,99352.50
2024-04-15T21:40:46.060Z,99361.41
2024-04-15T21:43:12.826Z,99361.66
2024-04-15T21:45:39.650Z,99353.28
2024-04-15T21:48:06.546Z,99350.78
2024-04-15T21:50:33.243Z,99352.16
2024-04-15T21:52:59.912Z,99350.06
2024-04-15T21:55:26.549Z,99339.72
2024-04-15T21:57:53.166Z,99342.94
2024-04-15T22:00:19.949Z,99337.34
2024-04-15T22:02:46.616Z,99331.44
2024-04-15T22:05:13.551Z,99331.59
2024-04-15T22:07:40.339Z,99330.22
2024-04-15T22:10:07.271Z,99333.63
2024-04-15T22:12:33.950Z,99332.34
2024-04-15T22:15:00.607Z,99330.94
2024-04-15T22:17:33.184Z,99337.00
2024-04-15T22:19:59.983Z,99330.34
2024-04-15T22:22:26.677Z,99331.03
2024-04-15T22:24:53.512Z,99337.00
2024-04-15T22:27:20.294Z,99328.88
2024-04-15T22:29:47.032Z,99324.09
2024-04-15T22:32:13.639Z,99323.03
2024-04-15T22:34:40.460Z,99320.13
2024-04-15T22:37:07.320Z,99322.34
2024-04-15T22:39:34.448Z,99323.78
2024-04-15T22:42:01.171Z,99320.50
2024-04-15T22:44:27.842Z,99327.72
2024-04-15T22:46:54.514Z,99325.31
2024-04-15T22:49:21.226Z,99324.06
2024-04-15T22:51:47.851Z,99308.94
2024-04-15T22:54:14.461Z,99317.38
2024-04-15T22:56:45.305Z,99310.25
2024-04-15T22:59:12.086Z,99306.66
2024-04-15T23:01:38.786Z,99309.06
2024-04-15T23:04:05.683Z,99314.69
2024-04-15T23:06:32.418Z,99318.94
2024-04-15T23:08:59.249Z,99310.03
2024-04-15T23:11:25.987Z,99314.97
2024-04-15T23:13:52.681Z,99315.63
2024-04-15T23:16:19.484Z,99319.72
2024-04-15T23:18:47.666Z,99310.47
2024-04-15T23:21:14.394Z,99325.94
2024-04-15T23:23:41.003Z,99307.38
2024-04-15T23:26:08.197Z,99310.38
2024-04-15T23:28:34.929Z,99305.44
2024-04-15T23:31:03.354Z,99308.94
2024-04-15T23:33:31.167Z,99310.03
2024-04-15T23:35:57.964Z,99312.63
2024-04-15T23:38:24.644Z,99312.19
2024-04-15T23:40:51.558Z,99314.69
2024-04-15T23:43:18.213Z,99315.34
2024-04-15T23:46:03.561Z,99312.19
2024-04-15T23:48:49.231Z,99313.00
2024-04-15T23:51:34.652Z,99311.94
2024-04-15T23:54:20.725Z,99319.09
2024-04-15T23:57:06.209Z,99305.72
2024-04-15T23:59:32.876Z,99306.22
